sensor_id;sensor_type;location;lat;lon;timestamp;P1;durP1;ratioP1;P2;durP2;ratioP2
49193;SDS011;35029;50.804;12.866;2023-08-20T00:00:33;10.80;;;6.80;;
49193;SDS011;35029;50.804;12.866;2023-08-20T00:03:04;7.25;;;6.55;;
49193;SDS011;35029;50.804;12.866;2023-08-20T00:05:35;9.43;;;6.70;;
49193;SDS011;35029;50.804;12.866;2023-08-20T00:08:02;9.50;;;6.82;;
49193;SDS011;35029;50.804;12.866;2023-08-20T00:10:27;9.73;;;6.97;;
49193;SDS011;35029;50.804;12.866;2023-08-20T00:12:53;9.02;;;6.78;;
49193;SDS011;35029;50.804;12.866;2023-08-20T00:15:18;9.48;;;6.75;;
49193;SDS011;35029;50.804;12.866;2023-08-20T00:17:45;7.88;;;6.45;;
49193;SDS011;35029;50.804;12.866;2023-08-20T00:20:13;7.93;;;6.78;;
49193;SDS011;35029;50.804;12.866;2023-08-20T00:22:39;6.50;;;5.90;;
49193;SDS011;35029;50.804;12.866;2023-08-20T00:25:07;7.68;;;6.40;;
49193;SDS011;35029;50.804;12.866;2023-08-20T00:27:33;9.02;;;6.05;;
49193;SDS011;35029;50.804;12.866;2023-08-20T00:29:58;9.80;;;6.07;;
49193;SDS011;35029;50.804;12.866;2023-08-20T00:32:24;8.52;;;6.72;;
49193;SDS011;35029;50.804;12.866;2023-08-20T00:34:50;6.47;;;5.88;;
49193;SDS011;35029;50.804;12.866;2023-08-20T00:37:17;10.18;;;7.10;;
49193;SDS011;35029;50.804;12.866;2023-08-20T00:39:42;10.30;;;7.47;;
49193;SDS011;35029;50.804;12.866;2023-08-20T00:42:08;10.00;;;6.80;;
49193;SDS011;35029;50.804;12.866;2023-08-20T00:44:34;9.27;;;7.30;;
49193;SDS011;35029;50.804;12.866;2023-08-20T00:47:01;7.00;;;6.30;;
49193;SDS011;35029;50.804;12.866;2023-08-20T00:49:28;9.45;;;6.60;;
49193;SDS011;35029;50.804;12.866;2023-08-20T00:51:55;10.70;;;7.03;;
49193;SDS011;35029;50.804;12.866;2023-08-20T00:54:21;7.30;;;6.63;;
49193;SDS011;35029;50.804;12.866;2023-08-20T00:56:48;6.93;;;6.22;;
49193;SDS011;35029;50.804;12.866;2023-08-20T00:59:15;9.45;;;6.35;;
49193;SDS011;35029;50.804;12.866;2023-08-20T01:01:44;11.40;;;7.25;;
49193;SDS011;35029;50.804;12.866;2023-08-20T01:04:09;7.82;;;6.90;;
49193;SDS011;35029;50.804;12.866;2023-08-20T01:06:53;8.57;;;6.50;;
49193;SDS011;35029;50.804;12.866;2023-08-20T01:09:36;7.43;;;6.70;;
49193;SDS011;35029;50.804;12.866;2023-08-20T01:12:13;8.85;;;7.00;;
49193;SDS011;35029;50.804;12.866;2023-08-20T01:14:39;9.57;;;6.65;;
49193;SDS011;35029;50.804;12.866;2023-08-20T01:17:05;8.63;;;6.57;;
49193;SDS011;35029;50.804;12.866;2023-08-20T01:19:31;9.95;;;6.70;;
49193;SDS011;35029;50.804;12.866;2023-08-20T01:24:47;10.70;;;7.18;;
49193;SDS011;35029;50.804;12.866;2023-08-20T01:29:57;8.90;;;6.65;;
49193;SDS011;35029;50.804;12.866;2023-08-20T01:32:24;7.93;;;7.13;;
49193;SDS011;35029;50.804;12.866;2023-08-20T01:34:51;28.95;;;6.28;;
49193;SDS011;35029;50.804;12.866;2023-08-20T01:37:18;8.35;;;6.50;;
49193;SDS011;35029;50.804;12.866;2023-08-20T01:39:44;8.43;;;6.28;;
49193;SDS011;35029;50.804;12.866;2023-08-20T01:42:10;8.38;;;6.10;;
49193;SDS011;35029;50.804;12.866;2023-08-20T01:44:35;7.75;;;6.95;;
49193;SDS011;35029;50.804;12.866;2023-08-20T01:47:01;9.38;;;7.43;;
49193;SDS011;35029;50.804;12.866;2023-08-20T01:49:28;13.95;;;7.32;;
49193;SDS011;35029;50.804;12.866;2023-08-20T01:51:53;7.65;;;6.88;;
49193;SDS011;35029;50.804;12.866;2023-08-20T01:54:19;8.73;;;6.55;;
49193;SDS011;35029;50.804;12.866;2023-08-20T01:56:44;7.70;;;6.95;;
49193;SDS011;35029;50.804;12.866;2023-08-20T01:59:10;8.77;;;6.78;;
49193;SDS011;35029;50.804;12.866;2023-08-20T02:01:36;12.25;;;7.13;;
49193;SDS011;35029;50.804;12.866;2023-08-20T02:04:01;9.07;;;6.32;;
49193;SDS011;35029;50.804;12.866;2023-08-20T02:06:27;7.22;;;6.53;;
49193;SDS011;35029;50.804;12.866;2023-08-20T02:08:53;7.93;;;6.72;;
49193;SDS011;35029;50.804;12.866;2023-08-20T02:11:22;13.00;;;7.07;;
49193;SDS011;35029;50.804;12.866;2023-08-20T02:13:47;8.48;;;7.47;;
49193;SDS011;35029;50.804;12.866;2023-08-20T02:16:13;8.80;;;6.90;;
49193;SDS011;35029;50.804;12.866;2023-08-20T02:18:41;11.27;;;7.80;;
49193;SDS011;35029;50.804;12.866;2023-08-20T02:21:07;6.75;;;6.07;;
49193;SDS011;35029;50.804;12.866;2023-08-20T02:23:33;9.07;;;6.82;;
49193;SDS011;35029;50.804;12.866;2023-08-20T02:25:59;8.05;;;6.80;;
49193;SDS011;35029;50.804;12.866;2023-08-20T02:28:29;9.07;;;6.70;;
49193;SDS011;35029;50.804;12.866;2023-08-20T02:30:54;9.30;;;6.57;;
49193;SDS011;35029;50.804;12.866;2023-08-20T02:33:20;8.63;;;6.85;;
49193;SDS011;35029;50.804;12.866;2023-08-20T02:35:47;8.57;;;7.25;;
49193;SDS011;35029;50.804;12.866;2023-08-20T02:38:12;10.27;;;6.80;;
49193;SDS011;35029;50.804;12.866;2023-08-20T02:40:40;8.93;;;6.57;;
49193;SDS011;35029;50.804;12.866;2023-08-20T02:43:06;7.13;;;6.40;;
49193;SDS011;35029;50.804;12.866;2023-08-20T02:45:32;14.30;;;7.63;;
49193;SDS011;35029;50.804;12.866;2023-08-20T02:47:57;9.18;;;6.82;;
49193;SDS011;35029;50.804;12.866;2023-08-20T02:50:23;6.65;;;5.22;;
49193;SDS011;35029;50.804;12.866;2023-08-20T02:52:49;7.38;;;6.13;;
49193;SDS011;35029;50.804;12.866;2023-08-20T02:55:14;9.63;;;6.95;;
49193;SDS011;35029;50.804;12.866;2023-08-20T02:57:40;10.35;;;6.38;;
49193;SDS011;35029;50.804;12.866;2023-08-20T03:00:05;7.72;;;7.00;;
49193;SDS011;35029;50.804;12.866;2023-08-20T03:02:36;8.88;;;7.30;;
49193;SDS011;35029;50.804;12.866;2023-08-20T03:05:02;9.13;;;6.82;;
49193;SDS011;35029;50.804;12.866;2023-08-20T03:07:28;9.23;;;6.47;;
49193;SDS011;35029;50.804;12.866;2023-08-20T03:09:53;9.27;;;6.63;;
49193;SDS011;35029;50.804;12.866;2023-08-20T03:12:19;7.57;;;6.20;;
49193;SDS011;35029;50.804;12.866;2023-08-20T03:14:44;9.93;;;7.95;;
49193;SDS011;35029;50.804;12.866;2023-08-20T03:17:10;8.35;;;6.90;;
49193;SDS011;35029;50.804;12.866;2023-08-20T03:19:36;9.73;;;7.45;;
49193;SDS011;35029;50.804;12.866;2023-08-20T03:22:02;8.18;;;6.55;;
49193;SDS011;35029;50.804;12.866;2023-08-20T03:24:28;7.57;;;6.60;;
49193;SDS011;35029;50.804;12.866;2023-08-20T03:26:53;8.40;;;7.53;;
49193;SDS011;35029;50.804;12.866;2023-08-20T03:29:19;8.23;;;7.10;;
49193;SDS011;35029;50.804;12.866;2023-08-20T03:31:44;8.45;;;6.78;;
49193;SDS011;35029;50.804;12.866;2023-08-20T03:34:10;8.45;;;6.93;;
49193;SDS011;35029;50.804;12.866;2023-08-20T03:36:36;9.18;;;7.25;;
49193;SDS011;35029;50.804;12.866;2023-08-20T03:39:02;17.23;;;7.03;;
49193;SDS011;35029;50.804;12.866;2023-08-20T03:41:28;10.93;;;8.02;;
49193;SDS011;35029;50.804;12.866;2023-08-20T03:43:54;8.40;;;7.45;;
49193;SDS011;35029;50.804;12.866;2023-08-20T03:46:19;12.93;;;7.82;;
49193;SDS011;35029;50.804;12.866;2023-08-20T03:48:45;11.15;;;7.43;;
49193;SDS011;35029;50.804;12.866;2023-08-20T03:51:11;10.73;;;7.78;;
49193;SDS011;35029;50.804;12.866;2023-08-20T03:53:36;7.72;;;6.82;;
49193;SDS011;35029;50.804;12.866;2023-08-20T03:56:02;10.38;;;7.53;;
49193;SDS011;35029;50.804;12.866;2023-08-20T03:58:27;11.82;;;7.53;;
49193;SDS011;35029;50.804;12.866;2023-08-20T04:00:53;9.77;;;7.32;;
49193;SDS011;35029;50.804;12.866;2023-08-20T04:03:18;10.60;;;6.82;;
49193;SDS011;35029;50.804;12.866;2023-08-20T04:05:45;10.02;;;7.07;;
49193;SDS011;35029;50.804;12.866;2023-08-20T04:08:11;9.63;;;6.65;;
49193;SDS011;35029;50.804;12.866;2023-08-20T04:10:42;10.43;;;7.03;;
49193;SDS011;35029;50.804;12.866;2023-08-20T04:13:08;8.85;;;7.03;;
49193;SDS011;35029;50.804;12.866;2023-08-20T04:15:34;7.43;;;6.25;;
49193;SDS011;35029;50.804;12.866;2023-08-20T04:17:59;10.52;;;7.40;;
49193;SDS011;35029;50.804;12.866;2023-08-20T04:20:27;8.20;;;7.35;;
49193;SDS011;35029;50.804;12.866;2023-08-20T04:22:53;8.88;;;7.47;;
49193;SDS011;35029;50.804;12.866;2023-08-20T04:25:18;8.38;;;6.97;;
49193;SDS011;35029;50.804;12.866;2023-08-20T04:27:44;7.80;;;7.00;;
49193;SDS011;35029;50.804;12.866;2023-08-20T04:30:10;13.38;;;7.97;;
49193;SDS011;35029;50.804;12.866;2023-08-20T04:32:36;11.35;;;8.52;;
49193;SDS011;35029;50.804;12.866;2023-08-20T04:35:02;8.55;;;7.63;;
49193;SDS011;35029;50.804;12.866;2023-08-20T04:37:27;8.30;;;7.45;;
49193;SDS011;35029;50.804;12.866;2023-08-20T04:39:57;9.75;;;7.53;;
49193;SDS011;35029;50.804;12.866;2023-08-20T04:42:22;9.50;;;7.43;;
49193;SDS011;35029;50.804;12.866;2023-08-20T04:44:48;10.63;;;6.95;;
49193;SDS011;35029;50.804;12.866;2023-08-20T04:47:14;11.55;;;7.25;;
49193;SDS011;35029;50.804;12.866;2023-08-20T04:49:40;7.05;;;6.35;;
49193;SDS011;35029;50.804;12.866;2023-08-20T04:52:05;7.95;;;7.25;;
49193;SDS011;35029;50.804;12.866;2023-08-20T04:54:31;8.25;;;6.93;;
49193;SDS011;35029;50.804;12.866;2023-08-20T04:56:57;9.30;;;7.60;;
49193;SDS011;35029;50.804;12.866;2023-08-20T04:59:23;10.35;;;6.82;;
49193;SDS011;35029;50.804;12.866;2023-08-20T05:01:54;8.90;;;7.43;;
49193;SDS011;35029;50.804;12.866;2023-08-20T05:04:35;12.70;;;8.57;;
49193;SDS011;35029;50.804;12.866;2023-08-20T05:07:01;9.82;;;8.27;;
49193;SDS011;35029;50.804;12.866;2023-08-20T05:09:28;14.38;;;9.10;;
49193;SDS011;35029;50.804;12.866;2023-08-20T05:11:54;9.32;;;8.00;;
49193;SDS011;35029;50.804;12.866;2023-08-20T05:14:19;10.23;;;8.13;;
49193;SDS011;35029;50.804;12.866;2023-08-20T05:16:45;10.35;;;7.95;;
49193;SDS011;35029;50.804;12.866;2023-08-20T05:19:11;9.75;;;7.95;;
49193;SDS011;35029;50.804;12.866;2023-08-20T05:21:36;8.45;;;7.57;;
49193;SDS011;35029;50.804;12.866;2023-08-20T05:24:02;12.63;;;8.45;;
49193;SDS011;35029;50.804;12.866;2023-08-20T05:26:29;8.27;;;7.47;;
49193;SDS011;35029;50.804;12.866;2023-08-20T05:28:54;11.48;;;7.78;;
49193;SDS011;35029;50.804;12.866;2023-08-20T05:31:20;11.20;;;8.05;;
49193;SDS011;35029;50.804;12.866;2023-08-20T05:33:46;10.57;;;8.10;;
49193;SDS011;35029;50.804;12.866;2023-08-20T05:36:12;8.38;;;7.57;;
49193;SDS011;35029;50.804;12.866;2023-08-20T05:38:37;10.88;;;8.30;;
49193;SDS011;35029;50.804;12.866;2023-08-20T05:41:03;12.13;;;8.15;;
49193;SDS011;35029;50.804;12.866;2023-08-20T05:43:29;11.18;;;8.68;;
49193;SDS011;35029;50.804;12.866;2023-08-20T05:45:55;10.60;;;8.50;;
49193;SDS011;35029;50.804;12.866;2023-08-20T05:48:22;9.25;;;8.00;;
49193;SDS011;35029;50.804;12.866;2023-08-20T05:50:47;11.85;;;9.68;;
49193;SDS011;35029;50.804;12.866;2023-08-20T05:53:14;9.07;;;8.10;;
49193;SDS011;35029;50.804;12.866;2023-08-20T05:55:40;10.35;;;8.27;;
49193;SDS011;35029;50.804;12.866;2023-08-20T05:58:06;11.38;;;10.00;;
49193;SDS011;35029;50.804;12.866;2023-08-20T06:00:32;12.90;;;9.57;;
49193;SDS011;35029;50.804;12.866;2023-08-20T06:02:58;14.95;;;10.82;;
49193;SDS011;35029;50.804;12.866;2023-08-20T06:05:23;12.43;;;9.65;;
49193;SDS011;35029;50.804;12.866;2023-08-20T06:07:49;13.90;;;11.18;;
49193;SDS011;35029;50.804;12.866;2023-08-20T06:10:15;10.52;;;9.52;;
49193;SDS011;35029;50.804;12.866;2023-08-20T06:12:41;12.55;;;11.30;;
49193;SDS011;35029;50.804;12.866;2023-08-20T06:15:07;12.38;;;10.27;;
49193;SDS011;35029;50.804;12.866;2023-08-20T06:17:33;12.07;;;9.52;;
49193;SDS011;35029;50.804;12.866;2023-08-20T06:19:58;12.07;;;10.82;;
49193;SDS011;35029;50.804;12.866;2023-08-20T06:22:24;13.27;;;9.13;;
49193;SDS011;35029;50.804;12.866;2023-08-20T06:24:50;11.15;;;9.50;;
49193;SDS011;35029;50.804;12.866;2023-08-20T06:27:15;11.38;;;9.57;;
49193;SDS011;35029;50.804;12.866;2023-08-20T06:29:41;10.05;;;8.93;;
49193;SDS011;35029;50.804;12.866;2023-08-20T06:32:06;15.35;;;10.45;;
49193;SDS011;35029;50.804;12.866;2023-08-20T06:34:33;12.98;;;10.10;;
49193;SDS011;35029;50.804;12.866;2023-08-20T06:36:59;9.80;;;8.50;;
49193;SDS011;35029;50.804;12.866;2023-08-20T06:39:24;11.48;;;9.20;;
49193;SDS011;35029;50.804;12.866;2023-08-20T06:41:50;9.30;;;8.38;;
49193;SDS011;35029;50.804;12.866;2023-08-20T06:44:19;14.75;;;9.48;;
49193;SDS011;35029;50.804;12.866;2023-08-20T06:46:45;11.27;;;8.65;;
49193;SDS011;35029;50.804;12.866;2023-08-20T06:49:11;11.85;;;9.98;;
49193;SDS011;35029;50.804;12.866;2023-08-20T06:51:38;11.63;;;10.13;;
49193;SDS011;35029;50.804;12.866;2023-08-20T06:54:14;8.65;;;7.85;;
49193;SDS011;35029;50.804;12.866;2023-08-20T06:56:42;11.13;;;8.38;;
49193;SDS011;35029;50.804;12.866;2023-08-20T07:01:57;9.52;;;8.55;;
49193;SDS011;35029;50.804;12.866;2023-08-20T07:04:37;12.43;;;8.57;;
49193;SDS011;35029;50.804;12.866;2023-08-20T07:09:31;9.82;;;8.32;;
49193;SDS011;35029;50.804;12.866;2023-08-20T07:11:57;10.65;;;9.65;;
49193;SDS011;35029;50.804;12.866;2023-08-20T07:14:22;10.15;;;8.05;;
49193;SDS011;35029;50.804;12.866;2023-08-20T07:16:48;11.55;;;8.55;;
49193;SDS011;35029;50.804;12.866;2023-08-20T07:19:14;9.57;;;7.68;;
49193;SDS011;35029;50.804;12.866;2023-08-20T07:21:39;11.70;;;8.77;;
49193;SDS011;35029;50.804;12.866;2023-08-20T07:24:05;10.40;;;9.18;;
49193;SDS011;35029;50.804;12.866;2023-08-20T07:26:31;10.10;;;9.07;;
49193;SDS011;35029;50.804;12.866;2023-08-20T07:28:57;10.95;;;8.60;;
49193;SDS011;35029;50.804;12.866;2023-08-20T07:31:27;15.43;;;9.60;;
49193;SDS011;35029;50.804;12.866;2023-08-20T07:33:58;13.73;;;8.75;;
49193;SDS011;35029;50.804;12.866;2023-08-20T07:36:25;10.65;;;9.55;;
49193;SDS011;35029;50.804;12.866;2023-08-20T07:38:51;9.90;;;8.90;;
49193;SDS011;35029;50.804;12.866;2023-08-20T07:41:18;11.25;;;9.90;;
49193;SDS011;35029;50.804;12.866;2023-08-20T07:43:47;9.48;;;8.52;;
49193;SDS011;35029;50.804;12.866;2023-08-20T07:46:14;9.32;;;8.43;;
49193;SDS011;35029;50.804;12.866;2023-08-20T07:48:40;10.07;;;9.07;;
49193;SDS011;35029;50.804;12.866;2023-08-20T07:51:06;10.82;;;8.85;;
49193;SDS011;35029;50.804;12.866;2023-08-20T07:53:32;11.90;;;7.88;;
49193;SDS011;35029;50.804;12.866;2023-08-20T07:55:59;10.10;;;9.20;;
49193;SDS011;35029;50.804;12.866;2023-08-20T07:58:26;10.60;;;8.90;;
49193;SDS011;35029;50.804;12.866;2023-08-20T08:00:53;11.70;;;9.88;;
49193;SDS011;35029;50.804;12.866;2023-08-20T08:03:19;10.95;;;9.07;;
49193;SDS011;35029;50.804;12.866;2023-08-20T08:05:48;12.95;;;8.60;;
49193;SDS011;35029;50.804;12.866;2023-08-20T08:08:17;12.93;;;9.95;;
49193;SDS011;35029;50.804;12.866;2023-08-20T08:10:44;10.52;;;9.27;;
49193;SDS011;35029;50.804;12.866;2023-08-20T08:13:14;10.65;;;9.50;;
49193;SDS011;35029;50.804;12.866;2023-08-20T08:15:40;14.38;;;10.20;;
49193;SDS011;35029;50.804;12.866;2023-08-20T08:18:06;10.40;;;8.88;;
49193;SDS011;35029;50.804;12.866;2023-08-20T08:20:32;13.70;;;8.88;;
49193;SDS011;35029;50.804;12.866;2023-08-20T08:22:58;10.80;;;9.77;;
49193;SDS011;35029;50.804;12.866;2023-08-20T08:25:25;12.55;;;10.75;;
49193;SDS011;35029;50.804;12.866;2023-08-20T08:27:50;11.52;;;9.02;;
49193;SDS011;35029;50.804;12.866;2023-08-20T08:30:16;11.38;;;10.20;;
49193;SDS011;35029;50.804;12.866;2023-08-20T08:32:41;9.48;;;8.57;;
49193;SDS011;35029;50.804;12.866;2023-08-20T08:35:07;10.73;;;8.68;;
49193;SDS011;35029;50.804;12.866;2023-08-20T08:37:33;9.43;;;8.43;;
49193;SDS011;35029;50.804;12.866;2023-08-20T08:39:58;9.43;;;8.52;;
49193;SDS011;35029;50.804;12.866;2023-08-20T08:42:24;12.48;;;10.10;;
49193;SDS011;35029;50.804;12.866;2023-08-20T08:44:50;11.65;;;10.55;;
49193;SDS011;35029;50.804;12.866;2023-08-20T08:47:21;20.73;;;10.40;;
49193;SDS011;35029;50.804;12.866;2023-08-20T08:49:47;11.23;;;9.45;;
49193;SDS011;35029;50.804;12.866;2023-08-20T08:52:13;10.13;;;9.13;;
49193;SDS011;35029;50.804;12.866;2023-08-20T08:54:39;14.20;;;9.68;;
49193;SDS011;35029;50.804;12.866;2023-08-20T08:57:06;11.88;;;9.88;;
49193;SDS011;35029;50.804;12.866;2023-08-20T08:59:32;14.35;;;10.32;;
49193;SDS011;35029;50.804;12.866;2023-08-20T09:01:58;13.05;;;10.73;;
49193;SDS011;35029;50.804;12.866;2023-08-20T09:04:23;12.38;;;10.60;;
49193;SDS011;35029;50.804;12.866;2023-08-20T09:06:52;11.75;;;9.10;;
49193;SDS011;35029;50.804;12.866;2023-08-20T09:09:21;11.27;;;9.57;;
49193;SDS011;35029;50.804;12.866;2023-08-20T09:11:47;10.88;;;9.88;;
49193;SDS011;35029;50.804;12.866;2023-08-20T09:14:31;15.38;;;10.43;;
49193;SDS011;35029;50.804;12.866;2023-08-20T09:17:00;13.13;;;11.38;;
49193;SDS011;35029;50.804;12.866;2023-08-20T09:19:30;19.23;;;10.33;;
49193;SDS011;35029;50.804;12.866;2023-08-20T09:22:00;13.32;;;10.85;;
49193;SDS011;35029;50.804;12.866;2023-08-20T09:24:26;14.88;;;10.32;;
49193;SDS011;35029;50.804;12.866;2023-08-20T09:26:59;11.63;;;10.43;;
49193;SDS011;35029;50.804;12.866;2023-08-20T09:29:25;11.80;;;9.68;;
49193;SDS011;35029;50.804;12.866;2023-08-20T09:31:50;10.98;;;9.98;;
49193;SDS011;35029;50.804;12.866;2023-08-20T09:34:25;12.43;;;10.60;;
49193;SDS011;35029;50.804;12.866;2023-08-20T09:36:52;11.63;;;10.20;;
49193;SDS011;35029;50.804;12.866;2023-08-20T09:39:18;14.48;;;11.73;;
49193;SDS011;35029;50.804;12.866;2023-08-20T09:41:44;17.90;;;10.75;;
49193;SDS011;35029;50.804;12.866;2023-08-20T09:44:12;11.60;;;10.50;;
49193;SDS011;35029;50.804;12.866;2023-08-20T09:46:40;12.05;;;9.63;;
49193;SDS011;35029;50.804;12.866;2023-08-20T09:49:08;12.10;;;11.07;;
49193;SDS011;35029;50.804;12.866;2023-08-20T09:51:37;11.73;;;10.02;;
49193;SDS011;35029;50.804;12.866;2023-08-20T09:56:37;11.48;;;10.27;;
49193;SDS011;35029;50.804;12.866;2023-08-20T09:59:04;12.60;;;10.02;;
49193;SDS011;35029;50.804;12.866;2023-08-20T10:01:29;11.50;;;9.60;;
49193;SDS011;35029;50.804;12.866;2023-08-20T10:03:55;9.77;;;8.82;;
49193;SDS011;35029;50.804;12.866;2023-08-20T10:06:21;13.20;;;10.85;;
49193;SDS011;35029;50.804;12.866;2023-08-20T10:08:48;10.85;;;9.75;;
49193;SDS011;35029;50.804;12.866;2023-08-20T10:11:16;11.10;;;9.93;;
49193;SDS011;35029;50.804;12.866;2023-08-20T10:13:42;9.15;;;8.27;;
49193;SDS011;35029;50.804;12.866;2023-08-20T10:16:08;10.30;;;9.30;;
49193;SDS011;35029;50.804;12.866;2023-08-20T10:18:38;10.52;;;8.98;;
49193;SDS011;35029;50.804;12.866;2023-08-20T10:21:04;8.57;;;7.78;;
49193;SDS011;35029;50.804;12.866;2023-08-20T10:23:33;11.60;;;9.65;;
49193;SDS011;35029;50.804;12.866;2023-08-20T10:26:08;11.18;;;8.82;;
49193;SDS011;35029;50.804;12.866;2023-08-20T10:28:34;9.48;;;8.60;;
49193;SDS011;35029;50.804;12.866;2023-08-20T10:31:08;10.10;;;8.63;;
49193;SDS011;35029;50.804;12.866;2023-08-20T10:33:38;9.50;;;8.60;;
49193;SDS011;35029;50.804;12.866;2023-08-20T10:36:18;11.05;;;9.05;;
49193;SDS011;35029;50.804;12.866;2023-08-20T10:38:51;9.60;;;8.52;;
49193;SDS011;35029;50.804;12.866;2023-08-20T10:41:29;9.02;;;8.13;;
49193;SDS011;35029;50.804;12.866;2023-08-20T10:43:59;11.63;;;8.57;;
49193;SDS011;35029;50.804;12.866;2023-08-20T10:46:26;11.85;;;8.63;;
49193;SDS011;35029;50.804;12.866;2023-08-20T10:51:28;11.65;;;8.73;;
49193;SDS011;35029;50.804;12.866;2023-08-20T10:59:25;9.50;;;8.32;;
49193;SDS011;35029;50.804;12.866;2023-08-20T11:01:53;12.52;;;7.80;;
49193;SDS011;35029;50.804;12.866;2023-08-20T11:04:22;9.53;;;8.53;;
49193;SDS011;35029;50.804;12.866;2023-08-20T11:06:52;9.70;;;8.70;;
49193;SDS011;35029;50.804;12.866;2023-08-20T11:09:22;10.68;;;8.65;;
49193;SDS011;35029;50.804;12.866;2023-08-20T11:11:50;8.57;;;7.68;;
49193;SDS011;35029;50.804;12.866;2023-08-20T11:14:18;8.70;;;7.90;;
49193;SDS011;35029;50.804;12.866;2023-08-20T11:16:45;8.43;;;7.65;;
49193;SDS011;35029;50.804;12.866;2023-08-20T11:19:12;8.98;;;8.10;;
49193;SDS011;35029;50.804;12.866;2023-08-20T11:21:39;9.18;;;8.27;;
49193;SDS011;35029;50.804;12.866;2023-08-20T11:24:07;8.80;;;7.80;;
49193;SDS011;35029;50.804;12.866;2023-08-20T11:26:33;8.50;;;7.70;;
49193;SDS011;35029;50.804;12.866;2023-08-20T11:29:00;9.55;;;8.27;;
49193;SDS011;35029;50.804;12.866;2023-08-20T11:31:29;10.57;;;8.00;;
49193;SDS011;35029;50.804;12.866;2023-08-20T11:33:56;8.98;;;8.07;;
49193;SDS011;35029;50.804;12.866;2023-08-20T11:36:22;9.43;;;8.45;;
49193;SDS011;35029;50.804;12.866;2023-08-20T11:38:49;8.73;;;7.82;;
49193;SDS011;35029;50.804;12.866;2023-08-20T11:41:21;12.65;;;8.05;;
49193;SDS011;35029;50.804;12.866;2023-08-20T11:43:47;8.27;;;7.60;;
49193;SDS011;35029;50.804;12.866;2023-08-20T11:46:13;10.13;;;8.43;;
49193;SDS011;35029;50.804;12.866;2023-08-20T11:51:35;8.60;;;7.38;;
49193;SDS011;35029;50.804;12.866;2023-08-20T11:54:02;9.25;;;8.15;;
49193;SDS011;35029;50.804;12.866;2023-08-20T11:56:30;9.45;;;7.90;;
49193;SDS011;35029;50.804;12.866;2023-08-20T11:59:01;10.57;;;8.10;;
49193;SDS011;35029;50.804;12.866;2023-08-20T12:01:33;8.93;;;8.07;;
49193;SDS011;35029;50.804;12.866;2023-08-20T12:04:05;10.00;;;8.27;;
49193;SDS011;35029;50.804;12.866;2023-08-20T12:06:33;7.43;;;6.80;;
49193;SDS011;35029;50.804;12.866;2023-08-20T12:09:00;10.77;;;7.93;;
49193;SDS011;35029;50.804;12.866;2023-08-20T12:11:30;7.70;;;7.00;;
49193;SDS011;35029;50.804;12.866;2023-08-20T12:13:56;8.07;;;7.38;;
49193;SDS011;35029;50.804;12.866;2023-08-20T12:16:22;8.32;;;7.53;;
49193;SDS011;35029;50.804;12.866;2023-08-20T12:18:49;8.45;;;7.28;;
49193;SDS011;35029;50.804;12.866;2023-08-20T12:21:16;8.50;;;7.35;;
49193;SDS011;35029;50.804;12.866;2023-08-20T12:23:41;9.05;;;7.25;;
49193;SDS011;35029;50.804;12.866;2023-08-20T12:26:07;8.73;;;7.90;;
49193;SDS011;35029;50.804;12.866;2023-08-20T12:28:33;8.15;;;7.20;;
49193;SDS011;35029;50.804;12.866;2023-08-20T12:30:59;9.15;;;7.72;;
49193;SDS011;35029;50.804;12.866;2023-08-20T12:33:25;7.85;;;7.22;;
49193;SDS011;35029;50.804;12.866;2023-08-20T12:35:53;11.43;;;7.80;;
49193;SDS011;35029;50.804;12.866;2023-08-20T12:38:19;10.52;;;7.63;;
49193;SDS011;35029;50.804;12.866;2023-08-20T12:40:45;8.85;;;8.05;;
49193;SDS011;35029;50.804;12.866;2023-08-20T12:43:11;8.88;;;8.02;;
49193;SDS011;35029;50.804;12.866;2023-08-20T12:45:36;8.52;;;7.63;;
49193;SDS011;35029;50.804;12.866;2023-08-20T12:48:04;8.63;;;7.82;;
49193;SDS011;35029;50.804;12.866;2023-08-20T12:50:30;8.80;;;7.82;;
49193;SDS011;35029;50.804;12.866;2023-08-20T12:52:55;7.80;;;7.05;;
49193;SDS011;35029;50.804;12.866;2023-08-20T12:55:21;7.97;;;7.18;;
49193;SDS011;35029;50.804;12.866;2023-08-20T12:57:54;8.55;;;7.65;;
49193;SDS011;35029;50.804;12.866;2023-08-20T13:00:24;11.65;;;7.53;;
49193;SDS011;35029;50.804;12.866;2023-08-20T13:05:17;9.10;;;7.90;;
49193;SDS011;35029;50.804;12.866;2023-08-20T13:07:44;8.02;;;7.25;;
49193;SDS011;35029;50.804;12.866;2023-08-20T13:10:10;10.10;;;7.72;;
49193;SDS011;35029;50.804;12.866;2023-08-20T13:12:37;7.35;;;6.70;;
49193;SDS011;35029;50.804;12.866;2023-08-20T13:15:06;9.18;;;8.27;;
49193;SDS011;35029;50.804;12.866;2023-08-20T13:17:35;8.15;;;7.40;;
49193;SDS011;35029;50.804;12.866;2023-08-20T13:20:00;11.63;;;7.97;;
49193;SDS011;35029;50.804;12.866;2023-08-20T13:22:26;7.90;;;7.10;;
49193;SDS011;35029;50.804;12.866;2023-08-20T13:24:51;10.88;;;8.60;;
49193;SDS011;35029;50.804;12.866;2023-08-20T13:27:17;8.32;;;7.45;;
49193;SDS011;35029;50.804;12.866;2023-08-20T13:29:43;9.65;;;7.60;;
49193;SDS011;35029;50.804;12.866;2023-08-20T13:32:08;11.45;;;7.40;;
49193;SDS011;35029;50.804;12.866;2023-08-20T13:34:34;8.07;;;7.30;;
49193;SDS011;35029;50.804;12.866;2023-08-20T13:36:59;8.75;;;7.88;;
49193;SDS011;35029;50.804;12.866;2023-08-20T13:39:25;8.20;;;7.43;;
49193;SDS011;35029;50.804;12.866;2023-08-20T13:41:50;8.68;;;7.78;;
49193;SDS011;35029;50.804;12.866;2023-08-20T13:44:16;9.82;;;7.65;;
49193;SDS011;35029;50.804;12.866;2023-08-20T13:46:42;10.23;;;7.78;;
49193;SDS011;35029;50.804;12.866;2023-08-20T13:49:07;8.65;;;7.75;;
49193;SDS011;35029;50.804;12.866;2023-08-20T13:51:33;8.25;;;7.53;;
49193;SDS011;35029;50.804;12.866;2023-08-20T13:53:58;7.95;;;7.25;;
49193;SDS011;35029;50.804;12.866;2023-08-20T13:56:24;8.55;;;7.68;;
49193;SDS011;35029;50.804;12.866;2023-08-20T13:58:51;8.75;;;7.10;;
49193;SDS011;35029;50.804;12.866;2023-08-20T14:01:17;10.18;;;7.40;;
49193;SDS011;35029;50.804;12.866;2023-08-20T14:03:43;11.35;;;7.63;;
49193;SDS011;35029;50.804;12.866;2023-08-20T14:06:08;9.95;;;7.68;;
49193;SDS011;35029;50.804;12.866;2023-08-20T14:08:34;8.13;;;7.43;;
49193;SDS011;35029;50.804;12.866;2023-08-20T14:11:00;7.93;;;7.10;;
49193;SDS011;35029;50.804;12.866;2023-08-20T14:13:25;11.43;;;7.80;;
49193;SDS011;35029;50.804;12.866;2023-08-20T14:15:51;8.15;;;7.35;;
49193;SDS011;35029;50.804;12.866;2023-08-20T14:18:16;9.35;;;7.45;;
49193;SDS011;35029;50.804;12.866;2023-08-20T14:20:42;8.10;;;7.30;;
49193;SDS011;35029;50.804;12.866;2023-08-20T14:23:08;12.00;;;8.02;;
49193;SDS011;35029;50.804;12.866;2023-08-20T14:25:33;10.60;;;7.68;;
49193;SDS011;35029;50.804;12.866;2023-08-20T14:27:59;8.13;;;7.40;;
49193;SDS011;35029;50.804;12.866;2023-08-20T14:30:25;7.70;;;6.88;;
49193;SDS011;35029;50.804;12.866;2023-08-20T14:32:52;9.80;;;7.78;;
49193;SDS011;35029;50.804;12.866;2023-08-20T14:35:19;8.43;;;6.97;;
49193;SDS011;35029;50.804;12.866;2023-08-20T14:37:45;11.27;;;6.95;;
49193;SDS011;35029;50.804;12.866;2023-08-20T14:40:11;13.02;;;7.65;;
49193;SDS011;35029;50.804;12.866;2023-08-20T14:42:38;8.93;;;7.03;;
49193;SDS011;35029;50.804;12.866;2023-08-20T14:45:06;8.63;;;7.30;;
49193;SDS011;35029;50.804;12.866;2023-08-20T14:47:33;8.85;;;7.43;;
49193;SDS011;35029;50.804;12.866;2023-08-20T14:49:59;8.15;;;7.32;;
49193;SDS011;35029;50.804;12.866;2023-08-20T14:52:25;8.75;;;7.03;;